KGLW/GLW METAR and TAF weather

Enter ICAO airport designator
Station Type Date Time Source
KGLW METAR 2019/05/19 20:35 UTC NOAA

KGLW 192035Z AUTO 22008G16KT 10SM BKN050 BKN070 BKN120 26/14 A2988 RMK AO2 T02600144


Station Type Date Time Source
KGLW Decoded METAR 2019/05/19 20:35 UTC NOAA

Glasgow, Glasgow Municipal Airport, KY, United States (KGLW) 37-01-54N 085-57-13W
May 19, 2019 - 04:35 PM EDT / 2019.05.19 2035 UTC
Wind: from the SW (220 degrees) at 9 MPH (8 KT) gusting to 18 MPH (16 KT):0
Visibility: 10 mile(s):0
Sky conditions: mostly cloudy
Temperature: 78.8 F (26.0 C)
Dew Point: 57.9 F (14.4 C)
Relative Humidity: 48%
Pressure (altimeter): 29.88 in. Hg (1011 hPa)
ob: KGLW 192035Z AUTO 22008G16KT 10SM BKN050 BKN070 BKN120 26/14 A2988 RMK AO2 T02600144
cycle: 20

Station Type Date Time Source
KGLW TAF UTC NOAA

Error!

Example: see airport list